createdAt,value
2019-03-29T00:00:38.412Z,9.70
2019-03-29T00:01:38.372Z,9.60
2019-03-29T00:02:38.347Z,10.20
2019-03-29T00:03:38.328Z,9.50
2019-03-29T00:04:38.301Z,9.80
2019-03-29T00:05:38.278Z,9.40
2019-03-29T00:06:38.310Z,9.90
2019-03-29T00:07:39.927Z,9.70
2019-03-29T00:08:38.201Z,9.60
2019-03-29T00:09:38.180Z,9.40
2019-03-29T00:10:38.170Z,9.40
2019-03-29T00:11:38.224Z,9.80
2019-03-29T00:12:38.107Z,10.10
2019-03-29T00:13:38.083Z,9.90
2019-03-29T00:14:38.063Z,10.00
2019-03-29T00:15:38.039Z,10.30
2019-03-29T00:16:38.050Z,10.30
2019-03-29T00:17:37.983Z,10.20
2019-03-29T00:18:37.963Z,10.70
2019-03-29T00:19:37.947Z,10.40
2019-03-29T00:20:37.910Z,10.80
2019-03-29T00:21:39.103Z,10.60
2019-03-29T00:22:37.867Z,10.30
2019-03-29T00:23:37.854Z,10.50
2019-03-29T00:24:37.816Z,11.10
2019-03-29T00:25:37.791Z,10.70
2019-03-29T00:26:37.770Z,10.90
2019-03-29T00:27:37.743Z,10.60
2019-03-29T00:28:37.747Z,10.50
2019-03-29T00:29:37.723Z,10.90
2019-03-29T00:30:37.683Z,10.10
2019-03-29T00:31:37.711Z,10.90
2019-03-29T00:32:37.629Z,10.10
2019-03-29T00:33:37.648Z,10.00
2019-03-29T00:34:37.601Z,10.70
2019-03-29T00:35:37.556Z,11.10
2019-03-29T00:36:37.547Z,10.70
2019-03-29T00:37:37.499Z,11.20
2019-03-29T00:38:37.479Z,10.50
2019-03-29T00:39:37.451Z,10.20
2019-03-29T00:40:37.428Z,10.60
2019-03-29T00:41:37.402Z,11.00
2019-03-29T00:42:37.379Z,11.30
2019-03-29T00:43:37.360Z,10.70
2019-03-29T00:44:37.328Z,10.40
2019-03-29T00:45:37.307Z,11.00
2019-03-29T00:46:37.898Z,11.00
2019-03-29T00:47:37.256Z,11.40
2019-03-29T00:48:37.241Z,11.10
2019-03-29T00:49:37.211Z,11.60
2019-03-29T00:50:37.206Z,10.70
2019-03-29T00:51:37.160Z,10.90
2019-03-29T00:52:37.142Z,10.40
2019-03-29T00:53:37.107Z,12.40
2019-03-29T00:54:37.090Z,12.10
2019-03-29T00:55:37.065Z,12.40
2019-03-29T00:56:37.038Z,12.20
2019-03-29T00:57:37.029Z,13.30
2019-03-29T00:58:36.986Z,12.70
2019-03-29T00:59:36.964Z,12.80
2019-03-29T01:00:36.942Z,11.30
2019-03-29T01:01:36.919Z,11.60
2019-03-29T01:02:36.899Z,11.20
2019-03-29T01:03:37.116Z,10.60
2019-03-29T01:04:36.846Z,11.50
2019-03-29T01:05:36.820Z,11.20
2019-03-29T01:06:36.801Z,11.30
2019-03-29T01:07:36.770Z,11.40
2019-03-29T01:08:37.927Z,12.70
2019-03-29T01:09:36.726Z,12.90
2019-03-29T01:10:36.727Z,13.20
2019-03-29T01:11:36.671Z,12.50
2019-03-29T01:12:36.680Z,12.80
2019-03-29T01:13:36.624Z,12.20
2019-03-29T01:14:36.602Z,12.70
2019-03-29T01:15:36.581Z,12.60
2019-03-29T01:16:36.551Z,12.40
2019-03-29T01:17:36.524Z,12.80
2019-03-29T01:18:37.302Z,11.90
2019-03-29T01:19:36.484Z,11.50
2019-03-29T01:20:36.458Z,12.20
2019-03-29T01:21:36.430Z,11.70
2019-03-29T01:22:36.405Z,11.80
2019-03-29T01:23:36.386Z,11.90
2019-03-29T01:24:36.358Z,11.60
2019-03-29T01:25:36.339Z,13.10
2019-03-29T01:26:36.322Z,13.60
2019-03-29T01:27:36.289Z,13.40
2019-03-29T01:28:36.268Z,13.50
2019-03-29T01:29:36.234Z,14.00
2019-03-29T01:30:36.216Z,13.20
2019-03-29T01:31:36.218Z,13.10
2019-03-29T01:32:36.198Z,14.20
2019-03-29T01:33:36.150Z,13.60
2019-03-29T01:34:36.144Z,14.70
2019-03-29T01:35:36.176Z,14.10
2019-03-29T01:36:36.074Z,14.10
2019-03-29T01:37:36.071Z,14.30
2019-03-29T01:38:36.019Z,14.10
2019-03-29T01:39:36.013Z,13.80
2019-03-29T01:40:35.971Z,14.10
2019-03-29T01:41:35.987Z,13.30
2019-03-29T01:42:35.942Z,14.80
2019-03-29T01:43:36.007Z,13.80
2019-03-29T01:44:35.878Z,13.90
2019-03-29T01:45:35.853Z,14.50
2019-03-29T01:46:35.821Z,14.70
2019-03-29T01:47:35.827Z,14.40
2019-03-29T01:48:35.774Z,15.10
2019-03-29T01:49:35.754Z,14.70
2019-03-29T01:50:35.751Z,14.60
2019-03-29T01:51:35.708Z,14.50
2019-03-29T01:52:35.679Z,14.50
2019-03-29T01:53:35.663Z,15.30
2019-03-29T01:54:35.630Z,15.40
2019-03-29T01:55:35.626Z,15.20
2019-03-29T01:56:35.578Z,15.30
2019-03-29T01:57:35.561Z,14.80
2019-03-29T01:58:35.573Z,15.20
2019-03-29T01:59:35.509Z,14.20
2019-03-29T02:00:36.324Z,13.70
2019-03-29T02:01:35.516Z,13.40
2019-03-29T02:02:35.437Z,13.00
2019-03-29T02:03:35.411Z,13.50
2019-03-29T02:04:35.388Z,13.00
2019-03-29T02:05:35.367Z,12.80
2019-03-29T02:06:35.348Z,13.30
2019-03-29T02:07:35.317Z,13.00
2019-03-29T02:08:36.241Z,13.20
2019-03-29T02:09:35.262Z,13.70
2019-03-29T02:10:35.258Z,13.10
2019-03-29T02:11:35.249Z,13.10
2019-03-29T02:12:35.194Z,13.00
2019-03-29T02:13:35.172Z,13.40
2019-03-29T02:14:35.145Z,14.10
2019-03-29T02:15:35.116Z,14.20
2019-03-29T02:16:35.111Z,14.50
2019-03-29T02:17:35.073Z,15.30
2019-03-29T02:18:35.054Z,16.60
2019-03-29T02:19:35.043Z,16.60
2019-03-29T02:20:34.999Z,16.50
2019-03-29T02:21:34.981Z,17.10
2019-03-29T02:22:34.953Z,17.00
2019-03-29T02:23:34.932Z,17.30
2019-03-29T02:24:34.904Z,17.00
2019-03-29T02:25:34.892Z,17.30
2019-03-29T02:26:34.929Z,17.60
2019-03-29T02:27:34.862Z,18.00
2019-03-29T02:28:34.800Z,19.00
2019-03-29T02:29:34.855Z,18.20
2019-03-29T02:30:34.762Z,19.10
2019-03-29T02:31:34.735Z,18.50
2019-03-29T02:32:34.761Z,22.50
2019-03-29T02:33:34.688Z,20.20
2019-03-29T02:34:34.658Z,18.70
2019-03-29T02:35:34.675Z,19.70
2019-03-29T02:36:34.965Z,19.40
2019-03-29T02:37:34.602Z,19.10
2019-03-29T02:38:34.578Z,19.80
2019-03-29T02:39:34.584Z,18.50
2019-03-29T02:40:34.512Z,19.80
2019-03-29T02:41:34.494Z,19.90
2019-03-29T02:42:34.467Z,19.10
2019-03-29T02:43:34.444Z,18.80
2019-03-29T02:44:34.998Z,20.30
2019-03-29T02:45:34.398Z,20.00
2019-03-29T02:46:34.387Z,19.30
2019-03-29T02:47:34.344Z,19.60
2019-03-29T02:48:34.318Z,19.50
2019-03-29T02:49:34.294Z,20.20
2019-03-29T02:50:34.303Z,19.90
2019-03-29T02:51:34.255Z,21.50
2019-03-29T02:52:34.222Z,22.10
2019-03-29T02:53:34.203Z,21.60
2019-03-29T02:54:34.177Z,20.50
2019-03-29T02:55:34.154Z,19.70
2019-03-29T02:56:34.141Z,20.00
2019-03-29T02:57:34.099Z,19.90
2019-03-29T02:58:34.070Z,19.70
2019-03-29T02:59:34.056Z,19.90
2019-03-29T03:00:34.050Z,20.10
2019-03-29T03:01:34.010Z,19.60
2019-03-29T03:02:34.005Z,20.10
2019-03-29T03:03:33.986Z,19.60
2019-03-29T03:04:33.927Z,20.40
2019-03-29T03:05:33.920Z,19.80
2019-03-29T03:06:33.885Z,19.60
2019-03-29T03:07:33.859Z,19.80
2019-03-29T03:08:33.837Z,18.90
2019-03-29T03:09:33.819Z,19.60
2019-03-29T03:10:33.789Z,20.60
2019-03-29T03:11:33.757Z,20.50
2019-03-29T03:12:33.771Z,20.10
2019-03-29T03:13:33.742Z,19.60
2019-03-29T03:14:33.693Z,19.70
2019-03-29T03:15:33.663Z,19.50
2019-03-29T03:16:33.720Z,19.90
2019-03-29T03:17:33.629Z,19.70
2019-03-29T03:18:33.619Z,19.60
2019-03-29T03:19:33.563Z,22.20
2019-03-29T03:20:33.541Z,22.00
2019-03-29T03:21:33.510Z,21.60
2019-03-29T03:22:33.487Z,22.60
2019-03-29T03:23:33.465Z,21.20
2019-03-29T03:24:33.445Z,22.30
2019-03-29T03:25:33.415Z,22.60
2019-03-29T03:26:33.392Z,22.10
2019-03-29T03:27:33.369Z,22.40
2019-03-29T03:28:33.346Z,21.40
2019-03-29T03:29:33.326Z,21.30
2019-03-29T03:30:33.320Z,21.60
2019-03-29T03:31:33.293Z,21.50
2019-03-29T03:32:33.251Z,20.30
2019-03-29T03:33:33.248Z,19.90
2019-03-29T03:34:33.229Z,19.30
2019-03-29T03:35:33.185Z,19.60
2019-03-29T03:36:33.159Z,19.70
2019-03-29T03:37:33.160Z,19.10
2019-03-29T03:38:33.130Z,19.70
2019-03-29T03:39:33.109Z,19.00
2019-03-29T03:40:33.052Z,19.20
2019-03-29T03:41:33.047Z,19.60
2019-03-29T03:42:33.013Z,19.90
2019-03-29T03:43:32.982Z,19.10
2019-03-29T03:44:32.978Z,19.60
2019-03-29T03:45:32.936Z,20.60
2019-03-29T03:46:32.946Z,20.90
2019-03-29T03:47:32.895Z,20.40
2019-03-29T03:48:32.861Z,19.50
2019-03-29T03:49:32.836Z,20.10
2019-03-29T03:50:32.830Z,20.00
2019-03-29T03:51:32.786Z,20.30
2019-03-29T03:52:32.757Z,20.50
2019-03-29T03:53:32.751Z,21.60
2019-03-29T03:54:32.710Z,21.70
2019-03-29T03:55:32.708Z,22.10
2019-03-29T03:56:32.664Z,21.40
2019-03-29T03:57:32.640Z,20.50
2019-03-29T03:58:32.617Z,19.90
2019-03-29T03:59:32.613Z,20.10
2019-03-29T04:00:32.565Z,20.30
2019-03-29T04:01:32.542Z,21.70
2019-03-29T04:02:32.526Z,21.40
2019-03-29T04:03:32.502Z,21.60
2019-03-29T04:04:32.479Z,21.20
2019-03-29T04:05:32.447Z,19.60
2019-03-29T04:06:32.422Z,20.60
2019-03-29T04:07:32.395Z,21.30
2019-03-29T04:08:32.371Z,20.40
2019-03-29T04:09:48.520Z,20.60
2019-03-29T04:10:32.351Z,20.30
2019-03-29T04:11:32.299Z,20.20
2019-03-29T04:12:32.278Z,19.40
2019-03-29T04:13:32.279Z,19.50
2019-03-29T04:14:32.229Z,19.40
2019-03-29T04:15:32.225Z,19.20
2019-03-29T04:16:32.184Z,19.60
2019-03-29T04:17:32.152Z,19.30
2019-03-29T04:18:32.142Z,19.60
2019-03-29T04:19:32.123Z,20.50
2019-03-29T04:20:32.082Z,19.90
2019-03-29T04:21:32.054Z,19.60
2019-03-29T04:22:32.053Z,20.30
2019-03-29T04:23:32.007Z,19.90
2019-03-29T04:24:32.021Z,21.10
2019-03-29T04:25:31.998Z,19.60
2019-03-29T04:26:31.946Z,20.30
2019-03-29T04:27:31.949Z,20.30
2019-03-29T04:28:31.924Z,19.80
2019-03-29T04:29:31.873Z,20.80
2019-03-29T04:30:31.836Z,20.70
2019-03-29T04:31:31.848Z,20.80
2019-03-29T04:32:31.814Z,20.00
2019-03-29T04:33:31.783Z,19.40
2019-03-29T04:34:31.745Z,21.20
2019-03-29T04:35:31.717Z,21.00
2019-03-29T04:36:31.685Z,20.90
2019-03-29T04:37:31.684Z,20.80
2019-03-29T04:38:31.638Z,21.40
2019-03-29T04:39:31.640Z,23.20
2019-03-29T04:40:31.592Z,23.00
2019-03-29T04:41:31.575Z,23.50
2019-03-29T04:42:31.546Z,22.80
2019-03-29T04:43:31.517Z,21.60
2019-03-29T04:44:31.496Z,20.70
2019-03-29T04:45:31.468Z,20.90
2019-03-29T04:46:31.443Z,20.60
2019-03-29T04:47:31.450Z,20.50
2019-03-29T04:48:31.398Z,20.00
2019-03-29T04:49:31.372Z,21.20
2019-03-29T04:50:31.345Z,20.90
2019-03-29T04:51:31.325Z,20.80
2019-03-29T04:52:31.299Z,25.20
2019-03-29T04:53:31.295Z,24.00
2019-03-29T04:54:31.358Z,22.50
2019-03-29T04:55:31.228Z,21.80
2019-03-29T04:56:31.204Z,19.80
2019-03-29T04:57:31.224Z,19.60
2019-03-29T04:58:31.170Z,20.00
2019-03-29T04:59:31.126Z,19.70
2019-03-29T05:00:31.122Z,20.10
2019-03-29T05:01:31.082Z,18.60
2019-03-29T05:02:31.072Z,18.50
2019-03-29T05:03:31.028Z,18.90
2019-03-29T05:04:31.049Z,17.20
2019-03-29T05:05:30.983Z,16.40
2019-03-29T05:06:30.959Z,16.40
2019-03-29T05:07:30.952Z,15.90
2019-03-29T05:08:30.911Z,15.60
2019-03-29T05:09:30.885Z,15.30
2019-03-29T05:10:30.857Z,15.30
2019-03-29T05:11:30.834Z,15.60
2019-03-29T05:12:30.824Z,15.30
2019-03-29T05:13:30.787Z,16.50
2019-03-29T05:14:30.763Z,15.50
2019-03-29T05:15:30.736Z,15.80
2019-03-29T05:16:30.711Z,16.00
2019-03-29T05:17:30.696Z,15.70
2019-03-29T05:18:30.659Z,15.90
2019-03-29T05:19:30.638Z,16.20
2019-03-29T05:20:30.620Z,16.20
2019-03-29T05:21:30.588Z,16.00
2019-03-29T05:22:30.567Z,16.70
2019-03-29T05:23:30.559Z,17.30
2019-03-29T05:24:30.508Z,17.20
2019-03-29T05:25:30.495Z,17.60
2019-03-29T05:26:30.481Z,17.50
2019-03-29T05:27:30.440Z,18.60
2019-03-29T05:28:30.421Z,18.60
2019-03-29T05:29:30.392Z,18.40
2019-03-29T05:30:30.360Z,18.90
2019-03-29T05:31:30.350Z,19.00
2019-03-29T05:32:30.311Z,19.20
2019-03-29T05:33:30.325Z,19.00
2019-03-29T05:34:30.264Z,19.60
2019-03-29T05:35:30.298Z,19.40
2019-03-29T05:36:30.226Z,19.40
2019-03-29T05:37:30.217Z,19.10
2019-03-29T05:38:30.225Z,19.40
2019-03-29T05:39:30.140Z,19.10
2019-03-29T05:40:35.301Z,17.90
2019-03-29T05:41:30.096Z,17.10
2019-03-29T05:42:30.069Z,16.80
2019-03-29T05:43:30.054Z,16.90
2019-03-29T05:44:30.015Z,16.40
2019-03-29T05:45:29.995Z,16.80
2019-03-29T05:46:29.967Z,16.30
2019-03-29T05:47:29.946Z,15.70
2019-03-29T05:48:29.947Z,16.10
2019-03-29T05:49:29.920Z,16.00
2019-03-29T05:50:29.899Z,16.10
2019-03-29T05:51:29.853Z,15.70
2019-03-29T05:52:29.827Z,16.00
2019-03-29T05:53:29.799Z,14.90
2019-03-29T05:54:29.770Z,16.00
2019-03-29T05:55:32.772Z,16.20
2019-03-29T05:56:29.752Z,16.50
2019-03-29T05:57:29.709Z,17.00
2019-03-29T05:58:29.702Z,16.50
2019-03-29T05:59:29.677Z,16.50
2019-03-29T06:00:29.634Z,15.90
2019-03-29T06:01:29.609Z,16.70
2019-03-29T06:02:29.578Z,15.90
2019-03-29T06:03:29.566Z,16.20
2019-03-29T06:04:29.556Z,16.60
2019-03-29T06:05:29.509Z,16.10
2019-03-29T06:06:29.488Z,17.00
2019-03-29T06:07:29.463Z,16.90
2019-03-29T06:08:29.440Z,16.90
2019-03-29T06:09:29.440Z,17.00
2019-03-29T06:10:29.403Z,17.00
2019-03-29T06:11:29.361Z,17.50
2019-03-29T06:12:29.360Z,17.80
2019-03-29T06:13:29.311Z,18.30
2019-03-29T06:14:29.292Z,18.20
2019-03-29T06:15:29.273Z,17.90
2019-03-29T06:16:38.975Z,18.60
2019-03-29T06:17:29.248Z,18.10
2019-03-29T06:18:29.193Z,18.40
2019-03-29T06:19:29.183Z,18.20
2019-03-29T06:20:29.175Z,18.40
2019-03-29T06:21:29.149Z,17.90
2019-03-29T06:22:29.100Z,18.40
2019-03-29T06:23:29.094Z,17.60
2019-03-29T06:24:29.062Z,17.70
2019-03-29T06:25:29.057Z,17.90
2019-03-29T06:26:29.019Z,18.00
2019-03-29T06:27:29.016Z,17.70
2019-03-29T06:28:30.124Z,17.40
2019-03-29T06:29:28.965Z,17.90
2019-03-29T06:30:28.937Z,17.50
2019-03-29T06:31:28.893Z,17.40
2019-03-29T06:32:28.861Z,17.20
2019-03-29T06:33:28.846Z,17.20
2019-03-29T06:34:28.831Z,17.20
2019-03-29T06:35:28.818Z,17.50
2019-03-29T06:36:28.778Z,17.00
2019-03-29T06:37:28.799Z,17.20
2019-03-29T06:38:28.724Z,17.30
2019-03-29T06:39:28.705Z,17.40
2019-03-29T06:40:28.686Z,17.40
2019-03-29T06:41:28.715Z,17.60
2019-03-29T06:42:28.669Z,17.90
2019-03-29T06:43:28.611Z,17.90
2019-03-29T06:44:28.589Z,17.90
2019-03-29T06:45:28.568Z,17.50
2019-03-29T06:46:28.542Z,16.90
2019-03-29T06:47:28.517Z,17.50
2019-03-29T06:48:28.496Z,18.90
2019-03-29T06:49:28.472Z,18.30
2019-03-29T06:50:28.446Z,18.10
2019-03-29T06:51:28.429Z,17.70
2019-03-29T06:52:28.407Z,18.30
2019-03-29T06:53:28.383Z,17.70
2019-03-29T06:54:28.366Z,17.50
2019-03-29T06:55:28.336Z,18.20
2019-03-29T06:56:28.316Z,18.10
2019-03-29T06:57:28.290Z,18.40
2019-03-29T06:58:28.270Z,18.20
2019-03-29T06:59:28.240Z,16.70
2019-03-29T07:00:28.221Z,17.20
2019-03-29T07:01:28.200Z,17.10
2019-03-29T07:02:28.176Z,17.30
2019-03-29T07:03:28.151Z,17.40
2019-03-29T07:04:28.132Z,17.90
2019-03-29T07:05:28.106Z,18.00
2019-03-29T07:06:30.490Z,16.90
2019-03-29T07:07:28.067Z,16.90
2019-03-29T07:08:28.044Z,16.70
2019-03-29T07:09:28.020Z,16.50
2019-03-29T07:10:27.996Z,16.90
2019-03-29T07:11:27.972Z,16.50
2019-03-29T07:12:27.952Z,16.10
2019-03-29T07:13:27.927Z,15.50
2019-03-29T07:14:27.910Z,16.60
2019-03-29T07:15:27.887Z,15.90
2019-03-29T07:16:27.925Z,15.90
2019-03-29T07:17:27.841Z,16.20
2019-03-29T07:18:27.819Z,15.70
2019-03-29T07:19:27.797Z,15.70
2019-03-29T07:20:27.775Z,15.40
2019-03-29T07:21:27.753Z,15.60
2019-03-29T07:22:27.734Z,15.90
2019-03-29T07:23:27.711Z,15.40
2019-03-29T07:24:27.687Z,15.10
2019-03-29T07:25:27.667Z,15.10
2019-03-29T07:26:27.666Z,15.60
2019-03-29T07:27:27.619Z,15.10
2019-03-29T07:28:27.605Z,14.80
2019-03-29T07:29:27.575Z,15.40
2019-03-29T07:30:27.573Z,14.60
2019-03-29T07:31:27.530Z,14.50
2019-03-29T07:32:27.512Z,14.50
2019-03-29T07:33:27.498Z,14.70
2019-03-29T07:34:27.477Z,14.80
2019-03-29T07:35:27.455Z,13.60
2019-03-29T07:36:27.436Z,14.10
2019-03-29T07:37:27.413Z,14.60
2019-03-29T07:38:27.389Z,15.00
2019-03-29T07:39:27.367Z,15.40
2019-03-29T07:40:27.383Z,14.30
2019-03-29T07:41:32.229Z,13.70
2019-03-29T07:42:27.304Z,13.80
2019-03-29T07:43:27.309Z,13.20
2019-03-29T07:44:27.261Z,13.30
2019-03-29T07:45:27.238Z,13.10
2019-03-29T07:46:27.239Z,14.70
2019-03-29T07:47:27.196Z,14.50
2019-03-29T07:48:27.192Z,13.60
2019-03-29T07:49:27.158Z,13.30
2019-03-29T07:50:27.136Z,12.50
2019-03-29T07:51:27.115Z,13.10
2019-03-29T07:52:27.090Z,12.00
2019-03-29T07:53:27.071Z,11.70
2019-03-29T07:54:27.048Z,11.60
2019-03-29T07:55:27.031Z,11.20
2019-03-29T07:56:27.005Z,12.00
2019-03-29T07:57:26.986Z,12.10
2019-03-29T07:58:26.980Z,11.90
2019-03-29T07:59:26.949Z,10.60
2019-03-29T08:00:26.925Z,11.20
2019-03-29T08:01:26.905Z,10.90
2019-03-29T08:02:26.895Z,10.20
2019-03-29T08:03:26.860Z,11.20
2019-03-29T08:04:26.845Z,11.10
2019-03-29T08:05:26.820Z,10.50
2019-03-29T08:06:26.805Z,10.20
2019-03-29T08:07:28.110Z,10.50
2019-03-29T08:08:32.277Z,11.10
2019-03-29T08:09:27.445Z,12.30
2019-03-29T08:10:30.926Z,11.20
2019-03-29T08:11:27.697Z,15.00
2019-03-29T08:12:26.709Z,16.10
2019-03-29T08:13:26.662Z,14.00
2019-03-29T08:14:26.637Z,11.60
2019-03-29T08:15:26.625Z,10.70
2019-03-29T08:16:26.601Z,10.60
2019-03-29T08:17:26.581Z,11.10
2019-03-29T08:18:26.566Z,12.50
2019-03-29T08:19:26.539Z,12.30
2019-03-29T08:20:39.361Z,13.30
2019-03-29T08:21:26.497Z,13.70
2019-03-29T08:22:26.480Z,18.40
2019-03-29T08:23:28.771Z,14.40
2019-03-29T08:24:26.433Z,9.20
2019-03-29T08:25:26.425Z,8.60
2019-03-29T08:26:26.399Z,7.90
2019-03-29T08:27:26.394Z,7.70
2019-03-29T08:28:26.356Z,7.50
2019-03-29T08:29:26.337Z,7.10
2019-03-29T08:30:26.320Z,7.20
2019-03-29T08:31:26.297Z,7.10
2019-03-29T08:32:26.299Z,7.50
2019-03-29T08:33:26.250Z,7.60
2019-03-29T08:34:26.235Z,7.50
2019-03-29T08:35:26.218Z,7.90
2019-03-29T08:36:26.197Z,7.50
2019-03-29T08:37:26.181Z,7.20
2019-03-29T08:38:26.156Z,6.90
2019-03-29T08:39:28.129Z,7.40
2019-03-29T08:40:26.265Z,7.10
2019-03-29T08:41:26.095Z,7.50
2019-03-29T08:42:26.078Z,6.10
2019-03-29T08:43:26.065Z,5.50
2019-03-29T08:44:26.047Z,5.90
2019-03-29T08:45:26.016Z,6.40
2019-03-29T08:46:26.002Z,6.30
2019-03-29T08:47:25.981Z,6.60
2019-03-29T08:48:25.951Z,5.60
2019-03-29T08:49:25.938Z,5.60
2019-03-29T08:50:25.918Z,5.30
2019-03-29T08:51:25.895Z,4.50
2019-03-29T08:52:25.877Z,4.20
2019-03-29T08:53:27.439Z,5.10
2019-03-29T08:54:25.835Z,5.80
2019-03-29T08:55:25.816Z,5.40
2019-03-29T08:56:25.829Z,5.10
2019-03-29T08:57:25.774Z,5.80
2019-03-29T08:58:25.753Z,6.20
2019-03-29T08:59:25.733Z,6.10
2019-03-29T09:00:25.718Z,5.70
2019-03-29T09:01:25.719Z,4.40
2019-03-29T09:02:25.674Z,3.90
2019-03-29T09:03:25.649Z,4.00
2019-03-29T09:04:25.633Z,4.50
2019-03-29T09:05:25.618Z,4.70
2019-03-29T09:06:25.590Z,4.60
2019-03-29T09:07:28.027Z,4.10
2019-03-29T09:08:25.546Z,4.30
2019-03-29T09:09:25.528Z,4.10
2019-03-29T09:10:25.520Z,4.40
2019-03-29T09:11:25.497Z,4.30
2019-03-29T09:12:25.468Z,4.30
2019-03-29T09:13:25.450Z,4.00
2019-03-29T09:14:25.430Z,4.00
2019-03-29T09:15:25.429Z,4.00
2019-03-29T09:16:25.380Z,3.90
2019-03-29T09:17:25.367Z,4.00
2019-03-29T09:18:26.141Z,4.20
2019-03-29T09:19:25.328Z,3.80
2019-03-29T09:20:25.298Z,2.70
2019-03-29T09:21:25.278Z,2.40
2019-03-29T09:22:25.256Z,2.50
2019-03-29T09:23:25.241Z,2.40
2019-03-29T09:24:25.261Z,3.00
2019-03-29T09:25:25.198Z,2.90
2019-03-29T09:26:25.182Z,3.00
2019-03-29T09:27:25.164Z,2.70
2019-03-29T09:28:25.149Z,2.60
2019-03-29T09:34:01.687Z,2.90
2019-03-29T09:35:01.347Z,3.00
2019-03-29T09:36:54.957Z,2.90
2019-03-29T09:37:56.496Z,3.30
2019-03-29T09:39:48.246Z,3.20
2019-03-29T09:48:35.660Z,3.00
2019-03-29T09:49:28.508Z,2.70
2019-03-29T09:50:28.513Z,2.90
2019-03-29T09:51:28.508Z,3.10
2019-03-29T09:52:28.500Z,2.70
2019-03-29T09:58:44.909Z,3.00
2019-03-29T09:59:04.668Z,3.60
2019-03-29T10:00:17.773Z,3.60
2019-03-29T10:01:04.607Z,3.50
2019-03-29T10:02:04.608Z,3.30
2019-03-29T10:03:04.560Z,3.10
2019-03-29T10:04:04.551Z,4.30
2019-03-29T10:05:04.557Z,4.70
2019-03-29T10:06:04.581Z,4.10
2019-03-29T10:07:04.500Z,4.20
2019-03-29T10:08:04.486Z,4.20
2019-03-29T10:09:04.472Z,4.20
2019-03-29T10:10:04.462Z,4.10
2019-03-29T10:11:04.459Z,3.80
2019-03-29T10:12:04.441Z,4.60
2019-03-29T10:13:04.428Z,4.50
2019-03-29T10:14:04.415Z,4.40
2019-03-29T10:15:04.410Z,3.90
2019-03-29T10:16:04.399Z,4.10
2019-03-29T10:17:04.392Z,4.00
2019-03-29T10:18:05.149Z,3.70
2019-03-29T10:19:04.360Z,4.20
2019-03-29T10:20:04.355Z,4.80
2019-03-29T10:21:04.350Z,4.40
2019-03-29T10:22:04.336Z,4.60
2019-03-29T10:23:04.332Z,4.60
2019-03-29T10:24:04.321Z,4.50
2019-03-29T10:25:18.023Z,4.70
2019-03-29T10:26:04.302Z,4.40
2019-03-29T10:27:04.288Z,4.20
2019-03-29T10:28:04.284Z,4.40
2019-03-29T10:29:04.276Z,4.80
2019-03-29T10:30:04.266Z,4.60
2019-03-29T10:31:04.257Z,4.20
2019-03-29T10:32:08.955Z,4.70
2019-03-29T10:33:04.240Z,5.80
2019-03-29T10:34:04.231Z,5.20
2019-03-29T10:35:04.218Z,5.10
2019-03-29T10:36:04.214Z,4.90
2019-03-29T10:37:04.203Z,4.80
2019-03-29T10:38:04.193Z,5.20
2019-03-29T10:39:04.187Z,5.20
2019-03-29T10:40:04.179Z,5.50
2019-03-29T10:41:04.167Z,4.90
2019-03-29T10:42:04.159Z,5.30
2019-03-29T10:43:04.164Z,5.10
2019-03-29T10:44:04.147Z,5.00
2019-03-29T10:45:04.138Z,4.60
2019-03-29T10:46:04.126Z,5.20
2019-03-29T10:47:04.119Z,4.90
2019-03-29T10:48:04.107Z,5.10
2019-03-29T10:49:04.096Z,5.00
2019-03-29T10:50:04.093Z,5.10
2019-03-29T10:51:04.075Z,5.90
2019-03-29T10:52:04.080Z,5.80
2019-03-29T10:53:04.059Z,5.80
2019-03-29T10:54:04.054Z,5.80
2019-03-29T10:55:04.054Z,5.60
2019-03-29T10:56:04.039Z,6.20
2019-03-29T10:57:04.028Z,5.60
2019-03-29T10:58:04.017Z,6.10
2019-03-29T10:59:04.011Z,6.30
2019-03-29T11:00:04.003Z,6.40
2019-03-29T11:01:03.995Z,6.10
2019-03-29T11:02:03.984Z,5.90
2019-03-29T11:03:03.973Z,6.60
2019-03-29T11:04:03.970Z,6.00
2019-03-29T11:05:03.958Z,6.60
2019-03-29T11:06:03.951Z,6.30
2019-03-29T11:07:03.936Z,6.60
2019-03-29T11:08:03.944Z,6.70
2019-03-29T11:09:03.935Z,6.70
2019-03-29T11:10:03.916Z,7.00
2019-03-29T11:11:03.910Z,6.30
2019-03-29T11:12:03.906Z,7.00
2019-03-29T11:13:12.838Z,7.40
2019-03-29T11:14:03.884Z,6.70
2019-03-29T11:15:06.621Z,6.50
2019-03-29T11:16:03.869Z,6.90
2019-03-29T11:17:03.861Z,6.70
2019-03-29T11:18:03.847Z,6.80
2019-03-29T11:19:03.842Z,6.50
2019-03-29T11:20:03.836Z,6.60
2019-03-29T11:21:03.836Z,6.70
2019-03-29T11:22:03.818Z,6.50
2019-03-29T11:23:03.813Z,6.60
2019-03-29T11:24:03.799Z,6.70
2019-03-29T11:25:03.795Z,6.10
2019-03-29T11:26:03.794Z,6.00
2019-03-29T11:27:03.780Z,6.20
2019-03-29T11:28:03.778Z,6.30
2019-03-29T11:29:03.771Z,6.00
2019-03-29T11:30:03.757Z,6.10
2019-03-29T11:31:03.750Z,6.00
2019-03-29T11:32:03.741Z,6.50
2019-03-29T11:33:03.733Z,6.20
2019-03-29T11:34:03.728Z,6.50
2019-03-29T11:35:03.727Z,6.40
2019-03-29T11:36:03.714Z,6.20
2019-03-29T11:37:03.709Z,6.30
2019-03-29T11:38:03.696Z,6.20
2019-03-29T11:39:03.692Z,5.90
2019-03-29T11:40:03.691Z,6.10
2019-03-29T11:41:03.679Z,6.20
2019-03-29T11:42:03.906Z,6.00
2019-03-29T11:43:03.665Z,6.20
2019-03-29T11:44:03.654Z,6.30
2019-03-29T11:45:03.650Z,6.20
2019-03-29T11:46:03.642Z,6.60
2019-03-29T11:47:03.634Z,6.70
2019-03-29T11:48:09.053Z,6.60
2019-03-29T11:49:03.625Z,5.90
2019-03-29T11:50:03.618Z,6.60
2019-03-29T11:51:03.611Z,8.90
2019-03-29T11:52:03.601Z,6.60
2019-03-29T11:53:03.599Z,7.30
2019-03-29T11:54:03.588Z,6.60
2019-03-29T11:55:03.583Z,7.90
2019-03-29T11:56:03.574Z,7.00
2019-03-29T11:57:03.574Z,8.10
2019-03-29T11:58:03.558Z,6.50
2019-03-29T11:59:03.558Z,7.00
2019-03-29T12:00:03.550Z,6.20
2019-03-29T12:01:05.476Z,5.90
2019-03-29T12:02:03.533Z,5.60
2019-03-29T12:03:03.530Z,5.80
2019-03-29T12:04:03.520Z,5.90
2019-03-29T12:05:03.512Z,5.90
2019-03-29T12:06:03.505Z,6.00
2019-03-29T12:07:03.810Z,6.20
2019-03-29T12:08:03.493Z,6.10
2019-03-29T12:09:03.485Z,6.30
2019-03-29T12:10:03.477Z,6.30
2019-03-29T12:11:03.471Z,6.00
2019-03-29T12:12:03.474Z,6.00
2019-03-29T12:13:03.453Z,6.10
2019-03-29T12:14:04.970Z,6.20
2019-03-29T12:15:03.450Z,5.40
2019-03-29T12:16:03.437Z,5.10
2019-03-29T12:17:03.427Z,5.20
2019-03-29T12:18:03.418Z,5.30
2019-03-29T12:19:03.416Z,5.30
2019-03-29T12:20:03.411Z,5.20
2019-03-29T12:21:03.403Z,5.40
2019-03-29T12:22:03.395Z,5.20
2019-03-29T12:23:03.386Z,5.30
2019-03-29T12:24:03.383Z,5.30
2019-03-29T12:25:03.375Z,5.50
2019-03-29T12:26:03.367Z,5.20
2019-03-29T12:27:03.361Z,5.40
2019-03-29T12:28:03.347Z,5.50
2019-03-29T12:29:03.349Z,5.50
2019-03-29T12:30:03.339Z,5.00
2019-03-29T12:31:03.363Z,5.50
2019-03-29T12:32:03.324Z,5.60
2019-03-29T12:33:03.316Z,5.60
2019-03-29T12:34:03.310Z,5.40
2019-03-29T12:35:03.303Z,5.30
2019-03-29T12:36:03.296Z,5.20
2019-03-29T12:37:03.286Z,5.30
2019-03-29T12:38:03.288Z,5.60
2019-03-29T12:39:03.276Z,5.50
2019-03-29T12:40:03.267Z,5.40
2019-03-29T12:41:03.257Z,5.30
2019-03-29T12:42:03.263Z,5.20
2019-03-29T12:43:03.259Z,4.90
2019-03-29T12:44:03.257Z,5.00
2019-03-29T12:45:03.234Z,5.30
2019-03-29T12:46:03.224Z,5.20
2019-03-29T12:47:03.225Z,5.00
2019-03-29T12:48:03.231Z,5.30
2019-03-29T12:49:03.205Z,5.20
2019-03-29T12:50:03.195Z,5.30
2019-03-29T12:51:03.188Z,5.00
2019-03-29T12:52:03.180Z,5.10
2019-03-29T12:53:03.176Z,5.00
2019-03-29T12:54:03.182Z,4.80
2019-03-29T12:55:03.158Z,4.80
2019-03-29T12:56:03.153Z,5.10
2019-03-29T12:57:05.281Z,5.20
2019-03-29T12:58:03.144Z,5.50
2019-03-29T12:59:03.133Z,5.10
2019-03-29T13:00:03.124Z,5.00
2019-03-29T13:01:03.126Z,5.20
2019-03-29T13:02:03.113Z,4.70
2019-03-29T13:03:03.101Z,4.70
2019-03-29T13:04:03.091Z,4.40
2019-03-29T13:05:03.087Z,4.60
2019-03-29T13:06:03.074Z,5.10
2019-03-29T13:07:03.074Z,5.30
2019-03-29T13:08:03.062Z,5.10
2019-03-29T13:09:03.055Z,4.90
2019-03-29T13:10:03.050Z,4.80
2019-03-29T13:11:03.042Z,4.80
2019-03-29T13:12:03.030Z,4.90
2019-03-29T13:13:03.030Z,5.20
2019-03-29T13:14:09.935Z,5.50
2019-03-29T13:15:03.007Z,5.30
2019-03-29T13:16:02.999Z,4.60
2019-03-29T13:17:03.132Z,4.80
2019-03-29T13:18:02.989Z,4.40
2019-03-29T13:19:02.979Z,4.60
2019-03-29T13:20:02.978Z,4.60
2019-03-29T13:21:02.965Z,4.00